createdAt,value
2022-10-13T00:01:14.654Z,150.98
2022-10-13T00:03:42.179Z,165.00
2022-10-13T00:06:10.941Z,201.77
2022-10-13T00:08:38.180Z,171.07
2022-10-13T00:11:20.433Z,165.65
2022-10-13T00:13:48.475Z,113.93
2022-10-13T00:16:17.964Z,172.73
2022-10-13T00:18:44.463Z,89.82
2022-10-13T00:21:14.341Z,155.93
2022-10-13T00:23:41.627Z,165.40
2022-10-13T00:26:10.174Z,74.72
2022-10-13T00:28:37.796Z,84.00
2022-10-13T00:31:13.880Z,68.20
2022-10-13T00:33:40.241Z,68.80
2022-10-13T00:36:06.728Z,68.50
2022-10-13T00:38:33.387Z,91.45
2022-10-13T00:40:59.930Z,61.97
2022-10-13T00:43:47.222Z,76.30
2022-10-13T00:46:14.441Z,95.05
2022-10-13T00:48:43.156Z,98.38
2022-10-13T00:51:12.020Z,104.00
2022-10-13T00:53:39.684Z,59.35
2022-10-13T00:56:09.745Z,138.82
2022-10-13T00:58:38.339Z,103.03
2022-10-13T01:01:06.713Z,51.60
2022-10-13T01:03:33.693Z,66.95
2022-10-13T01:06:02.456Z,87.07
2022-10-13T01:08:30.092Z,71.05
2022-10-13T01:11:05.268Z,110.93
2022-10-13T01:13:42.593Z,74.57
2022-10-13T01:16:44.052Z,48.55
2022-10-13T01:19:42.765Z,54.45
2022-10-13T01:22:28.372Z,58.90
2022-10-13T01:25:31.138Z,78.63
2022-10-13T01:28:41.010Z,41.92
2022-10-13T01:31:20.629Z,62.50
2022-10-13T01:34:03.648Z,213.60
2022-10-13T01:36:50.433Z,53.03
2022-10-13T01:39:56.276Z,42.75
2022-10-13T01:42:28.468Z,52.05
2022-10-13T01:45:01.638Z,31.27
2022-10-13T01:47:31.323Z,27.95
2022-10-13T01:49:58.548Z,28.23
2022-10-13T01:52:32.184Z,32.42
2022-10-13T01:55:09.375Z,32.75
2022-10-13T01:57:37.540Z,21.98
2022-10-13T02:00:09.080Z,20.98
2022-10-13T02:03:04.888Z,29.73
2022-10-13T02:05:49.024Z,24.27
2022-10-13T02:08:24.437Z,23.95
2022-10-13T02:10:55.466Z,31.95
2022-10-13T02:13:27.492Z,29.30
2022-10-13T02:15:56.781Z,40.78
2022-10-13T02:18:35.056Z,35.42
2022-10-13T02:21:03.281Z,33.47
2022-10-13T02:23:30.266Z,36.30
2022-10-13T02:25:59.376Z,35.40
2022-10-13T02:28:26.806Z,36.40
2022-10-13T02:30:53.258Z,41.90
2022-10-13T02:33:19.680Z,60.45
2022-10-13T02:35:46.034Z,43.42
2022-10-13T02:38:12.723Z,35.50
2022-10-13T02:40:39.184Z,53.30
2022-10-13T02:43:05.686Z,62.47
2022-10-13T02:45:32.301Z,120.07
2022-10-13T02:47:58.694Z,59.58
2022-10-13T02:50:25.111Z,132.30
2022-10-13T02:52:53.014Z,158.15
2022-10-13T02:55:19.419Z,135.00
2022-10-13T02:57:47.540Z,139.18
2022-10-13T03:00:14.768Z,61.45
2022-10-13T03:02:41.716Z,99.80
2022-10-13T03:05:09.026Z,88.97
2022-10-13T03:07:36.054Z,215.30
2022-10-13T03:10:02.661Z,209.35
2022-10-13T03:12:29.016Z,286.77
2022-10-13T03:14:55.411Z,362.63
2022-10-13T03:17:21.817Z,100.10
2022-10-13T03:19:48.315Z,117.97
2022-10-13T03:22:18.190Z,127.90
2022-10-13T03:24:45.095Z,215.02
2022-10-13T03:27:11.547Z,102.25
2022-10-13T03:29:37.959Z,165.90
2022-10-13T03:32:04.736Z,52.42
2022-10-13T03:34:31.199Z,80.85
2022-10-13T03:36:57.802Z,81.18
2022-10-13T03:39:24.250Z,49.85
2022-10-13T03:41:50.681Z,102.90
2022-10-13T03:44:17.047Z,71.65
2022-10-13T03:46:43.510Z,140.98
2022-10-13T03:49:11.739Z,51.25
2022-10-13T03:51:38.786Z,134.35
2022-10-13T03:54:05.406Z,106.90
2022-10-13T03:56:31.792Z,102.18
2022-10-13T03:59:00.081Z,111.65
2022-10-13T04:01:29.368Z,96.78
2022-10-13T04:03:56.661Z,54.47
2022-10-13T04:06:24.427Z,130.10
2022-10-13T04:08:51.619Z,44.83
2022-10-13T04:11:19.239Z,74.85
2022-10-13T04:13:50.532Z,55.63
2022-10-13T04:16:20.255Z,62.28
2022-10-13T04:18:57.822Z,81.28
2022-10-13T04:21:25.681Z,60.45
2022-10-13T04:23:57.158Z,77.22
2022-10-13T04:26:25.008Z,76.13
2022-10-13T04:28:53.018Z,88.25
2022-10-13T04:31:23.303Z,54.47
2022-10-13T04:33:50.842Z,65.03
2022-10-13T04:36:18.429Z,50.72
2022-10-13T04:38:46.597Z,52.15
2022-10-13T04:41:14.991Z,51.47
2022-10-13T04:43:41.954Z,51.17
2022-10-13T04:46:23.225Z,51.20
2022-10-13T04:48:51.559Z,39.45
2022-10-13T04:51:22.557Z,65.88
2022-10-13T04:53:49.393Z,44.88
2022-10-13T04:56:17.638Z,44.40
2022-10-13T04:58:46.018Z,124.32
2022-10-13T05:01:21.883Z,133.88
2022-10-13T05:03:57.438Z,123.70
2022-10-13T05:06:26.853Z,78.97
2022-10-13T05:08:55.980Z,63.10
2022-10-13T05:11:24.132Z,76.95
2022-10-13T05:13:50.778Z,83.03
2022-10-13T05:16:18.407Z,58.95
2022-10-13T05:18:45.432Z,66.05
2022-10-13T05:21:14.466Z,54.25
2022-10-13T05:23:41.824Z,52.15
2022-10-13T05:26:11.412Z,49.70
2022-10-13T05:28:38.250Z,57.08
2022-10-13T05:31:18.799Z,55.58
2022-10-13T05:33:45.990Z,54.40
2022-10-13T05:36:19.287Z,45.20
2022-10-13T05:38:49.351Z,75.68
2022-10-13T05:41:15.734Z,59.97
2022-10-13T05:43:42.889Z,61.05
2022-10-13T05:46:09.713Z,48.78
2022-10-13T05:48:37.274Z,86.65
2022-10-13T05:51:09.443Z,67.63
2022-10-13T05:53:40.226Z,47.08
2022-10-13T05:56:13.748Z,63.42
2022-10-13T05:58:45.791Z,50.47
2022-10-13T06:01:17.280Z,59.67
2022-10-13T06:03:46.424Z,49.58
2022-10-13T06:06:12.817Z,42.25
2022-10-13T06:08:39.440Z,48.38
2022-10-13T06:11:06.977Z,52.60
2022-10-13T06:13:33.751Z,66.95
2022-10-13T06:16:00.361Z,43.55
2022-10-13T06:18:26.762Z,43.17
2022-10-13T06:20:53.141Z,42.47
2022-10-13T06:23:19.612Z,36.70
2022-10-13T06:25:53.014Z,44.47
2022-10-13T06:28:20.780Z,40.63
2022-10-13T06:30:53.273Z,40.72
2022-10-13T06:33:22.263Z,37.92
2022-10-13T06:35:48.794Z,39.88
2022-10-13T06:38:15.160Z,44.45
2022-10-13T06:40:42.174Z,37.97
2022-10-13T06:43:08.595Z,36.17
2022-10-13T06:45:40.670Z,31.08
2022-10-13T06:48:07.090Z,31.75
2022-10-13T06:50:33.596Z,34.05
2022-10-13T06:53:00.094Z,34.38
2022-10-13T06:55:26.856Z,34.78
2022-10-13T06:57:53.254Z,32.70
2022-10-13T07:00:19.958Z,33.42
2022-10-13T07:02:50.446Z,30.23
2022-10-13T07:05:16.978Z,37.33
2022-10-13T07:07:43.556Z,32.88
2022-10-13T07:10:10.086Z,36.53
2022-10-13T07:12:36.452Z,33.90
2022-10-13T07:15:03.011Z,34.92
2022-10-13T07:17:29.550Z,34.17
2022-10-13T07:19:57.965Z,34.45
2022-10-13T07:22:24.806Z,34.55
2022-10-13T07:24:51.181Z,41.72
2022-10-13T07:27:19.438Z,35.80
2022-10-13T07:29:45.954Z,41.78
2022-10-13T07:32:12.335Z,37.75
2022-10-13T07:34:38.769Z,41.83
2022-10-13T07:37:05.125Z,48.67
2022-10-13T07:39:31.859Z,53.33
2022-10-13T07:41:58.245Z,46.40
2022-10-13T07:44:24.728Z,53.22
2022-10-13T07:46:51.098Z,37.35
2022-10-13T07:49:17.769Z,40.60
2022-10-13T07:51:44.421Z,38.97
2022-10-13T07:54:11.092Z,49.10
2022-10-13T07:56:38.279Z,33.92
2022-10-13T07:59:05.293Z,34.78
2022-10-13T08:01:32.172Z,41.35
2022-10-13T08:03:59.146Z,45.28
2022-10-13T08:06:25.801Z,35.08
2022-10-13T08:08:54.244Z,38.63
2022-10-13T08:11:20.747Z,34.95
2022-10-13T08:13:51.203Z,31.38
2022-10-13T08:16:20.500Z,50.15
2022-10-13T08:18:49.225Z,34.22
2022-10-13T08:24:15.546Z,32.47
2022-10-13T08:26:43.359Z,27.55
2022-10-13T08:29:21.486Z,25.67
2022-10-13T08:34:24.708Z,32.72
2022-10-13T08:36:54.203Z,31.40
2022-10-13T08:39:22.831Z,26.67
2022-10-13T08:41:49.603Z,26.80
2022-10-13T08:47:46.797Z,35.05
2022-10-13T08:50:17.636Z,27.13
2022-10-13T08:52:52.583Z,24.00
2022-10-13T08:55:38.275Z,30.48
2022-10-13T08:58:14.652Z,30.27
2022-10-13T09:00:41.652Z,30.27
2022-10-13T09:03:29.062Z,29.58
2022-10-13T09:06:02.855Z,27.35
2022-10-13T09:08:36.237Z,36.47
2022-10-13T09:11:02.822Z,30.65
2022-10-13T09:13:29.199Z,31.48
2022-10-13T09:15:57.974Z,29.00
2022-10-13T09:18:30.588Z,27.27
2022-10-13T09:21:24.145Z,45.75
2022-10-13T09:23:53.856Z,31.38
2022-10-13T09:26:23.728Z,22.00
2022-10-13T09:28:51.483Z,27.30
2022-10-13T09:31:18.072Z,26.52
2022-10-13T09:33:45.672Z,31.13
2022-10-13T09:36:16.193Z,25.33
2022-10-13T09:39:07.542Z,26.48
2022-10-13T09:41:36.066Z,32.63
2022-10-13T09:44:32.044Z,27.70
2022-10-13T09:47:01.973Z,25.55
2022-10-13T09:50:03.305Z,32.40
2022-10-13T09:52:34.665Z,23.65
2022-10-13T09:55:01.571Z,26.13
2022-10-13T09:57:34.253Z,22.45
2022-10-13T10:00:22.069Z,23.88
2022-10-13T10:03:18.842Z,28.27
2022-10-13T10:05:51.977Z,22.90
2022-10-13T10:08:33.809Z,23.45
2022-10-13T10:11:12.467Z,23.70
2022-10-13T10:13:38.968Z,21.50
2022-10-13T10:16:22.749Z,24.80
2022-10-13T10:18:59.131Z,25.33
2022-10-13T10:21:53.451Z,19.77
2022-10-13T10:24:23.010Z,24.92
2022-10-13T10:29:23.595Z,24.25
2022-10-13T10:32:02.206Z,22.30
2022-10-13T10:34:37.074Z,24.42
2022-10-13T10:37:29.198Z,27.00
2022-10-13T10:40:15.130Z,22.15
2022-10-13T10:43:04.425Z,18.90
2022-10-13T10:45:38.831Z,20.08
2022-10-13T10:48:28.261Z,20.58
2022-10-13T10:50:54.809Z,25.38
2022-10-13T10:53:39.754Z,25.30
2022-10-13T10:56:19.366Z,20.80
2022-10-13T10:59:16.566Z,22.17
2022-10-13T11:02:07.225Z,19.55
2022-10-13T11:04:48.809Z,20.70
2022-10-13T11:07:24.072Z,17.08
2022-10-13T11:09:54.023Z,20.20
2022-10-13T11:12:20.791Z,20.23
2022-10-13T11:15:11.377Z,20.55
2022-10-13T11:17:40.079Z,19.80
2022-10-13T11:20:21.618Z,18.30
2022-10-13T11:23:00.291Z,23.33
2022-10-13T11:25:45.640Z,18.70
2022-10-13T11:28:21.285Z,17.60
2022-10-13T11:30:50.365Z,19.15
2022-10-13T11:33:52.447Z,17.25
2022-10-13T11:36:37.823Z,19.40
2022-10-13T11:39:28.120Z,17.13
2022-10-13T11:42:25.247Z,23.43
2022-10-13T11:44:57.370Z,17.55
2022-10-13T11:47:59.322Z,14.25
2022-10-13T11:50:52.525Z,15.55
2022-10-13T11:53:32.294Z,16.27
2022-10-13T11:56:01.465Z,16.58
2022-10-13T11:58:33.236Z,20.30
2022-10-13T12:01:12.293Z,18.38
2022-10-13T12:03:41.501Z,17.83
2022-10-13T12:06:32.077Z,20.65
2022-10-13T12:09:01.081Z,17.48
2022-10-13T12:11:37.635Z,18.10
2022-10-13T12:14:07.606Z,19.23
2022-10-13T12:16:33.992Z,18.80
2022-10-13T12:19:21.912Z,19.13
2022-10-13T12:21:53.644Z,21.25
2022-10-13T12:24:23.626Z,22.50
2022-10-13T12:26:50.724Z,28.92
2022-10-13T12:29:18.318Z,22.10
2022-10-13T12:31:47.278Z,24.40
2022-10-13T12:34:22.970Z,24.30
2022-10-13T12:36:57.232Z,29.20
2022-10-13T12:39:25.225Z,18.80
2022-10-13T12:41:53.363Z,26.17
2022-10-13T12:44:25.842Z,26.05
2022-10-13T12:46:56.215Z,21.85
2022-10-13T12:49:28.196Z,17.95
2022-10-13T12:52:03.496Z,19.77
2022-10-13T12:54:36.157Z,26.70
2022-10-13T12:57:19.263Z,22.60
2022-10-13T12:59:46.036Z,17.95
2022-10-13T13:02:29.845Z,16.70
2022-10-13T13:04:56.265Z,18.38
2022-10-13T13:07:34.159Z,23.60
2022-10-13T13:10:19.953Z,21.63
2022-10-13T13:12:48.749Z,20.25
2022-10-13T13:15:24.143Z,25.73
2022-10-13T13:17:59.561Z,16.95
2022-10-13T13:20:29.089Z,18.58
2022-10-13T13:22:55.926Z,25.10
2022-10-13T13:25:22.764Z,19.33
2022-10-13T13:27:49.260Z,15.15
2022-10-13T13:30:19.581Z,23.67
2022-10-13T13:32:46.329Z,17.10
2022-10-13T13:35:13.099Z,18.80
2022-10-13T13:37:50.438Z,21.35
2022-10-13T13:40:23.313Z,20.88
2022-10-13T13:42:50.069Z,18.80
2022-10-13T13:45:19.322Z,24.80
2022-10-13T13:47:46.304Z,26.48
2022-10-13T13:50:20.217Z,23.42
2022-10-13T13:52:55.877Z,21.60
2022-10-13T13:55:23.248Z,23.60
2022-10-13T13:57:49.743Z,21.52
2022-10-13T14:00:17.348Z,23.05
2022-10-13T14:02:49.275Z,22.40
2022-10-13T14:05:16.115Z,23.70
2022-10-13T14:07:42.500Z,18.65
2022-10-13T14:10:10.140Z,17.42
2022-10-13T14:12:37.024Z,22.33
2022-10-13T14:15:03.863Z,16.05
2022-10-13T14:17:30.283Z,21.35
2022-10-13T14:19:56.902Z,19.45
2022-10-13T14:22:23.599Z,16.23
2022-10-13T14:24:50.400Z,29.15
2022-10-13T14:27:16.850Z,20.98
2022-10-13T14:29:43.279Z,33.95
2022-10-13T14:32:11.471Z,22.10
2022-10-13T14:34:37.886Z,20.92
2022-10-13T14:37:04.477Z,26.08
2022-10-13T14:39:30.866Z,26.00
2022-10-13T14:41:57.292Z,26.33
2022-10-13T14:44:23.740Z,22.10
2022-10-13T14:46:50.195Z,26.13
2022-10-13T14:49:16.556Z,19.00
2022-10-13T14:51:47.666Z,24.40
2022-10-13T14:54:15.790Z,19.95
2022-10-13T14:56:42.155Z,20.80
2022-10-13T14:59:10.910Z,23.17
2022-10-13T15:01:41.282Z,23.55
2022-10-13T15:04:08.418Z,19.27
2022-10-13T15:06:35.135Z,22.08
2022-10-13T15:09:01.749Z,23.17
2022-10-13T15:11:28.461Z,32.58
2022-10-13T15:13:56.162Z,28.20
2022-10-13T15:16:26.215Z,26.90
2022-10-13T15:18:52.725Z,31.15
2022-10-13T15:21:19.577Z,23.17
2022-10-13T15:23:46.591Z,17.65
2022-10-13T15:26:14.861Z,19.85
2022-10-13T15:28:47.313Z,18.63
2022-10-13T15:31:15.807Z,15.50
2022-10-13T15:33:43.909Z,16.25
2022-10-13T15:36:10.311Z,24.55
2022-10-13T15:38:39.204Z,21.77
2022-10-13T15:41:06.912Z,19.50
2022-10-13T15:43:34.266Z,23.17
2022-10-13T15:46:04.148Z,20.80
2022-10-13T15:48:32.263Z,20.95
2022-10-13T15:50:58.721Z,20.65
2022-10-13T15:53:25.932Z,23.42
2022-10-13T15:55:52.680Z,19.95
2022-10-13T15:58:19.310Z,18.90
2022-10-13T16:00:45.819Z,19.60
2022-10-13T16:03:17.269Z,24.15
2022-10-13T16:05:45.379Z,21.55
2022-10-13T16:08:12.601Z,27.17
2022-10-13T16:10:41.107Z,20.20
2022-10-13T16:13:07.821Z,24.70
2022-10-13T16:15:34.233Z,24.48
2022-10-13T16:18:00.646Z,25.88
2022-10-13T16:20:27.109Z,25.95
2022-10-13T16:22:53.942Z,25.83
2022-10-13T16:25:20.384Z,20.10
2022-10-13T16:27:46.773Z,25.83
2022-10-13T16:30:13.337Z,22.73
2022-10-13T16:32:40.385Z,23.67
2022-10-13T16:35:07.421Z,24.58
2022-10-13T16:37:33.883Z,22.58
2022-10-13T16:40:00.270Z,20.73
2022-10-13T16:42:26.686Z,22.60
2022-10-13T16:44:53.049Z,22.35
2022-10-13T16:47:19.420Z,22.45
2022-10-13T16:49:46.845Z,23.52
2022-10-13T16:52:14.568Z,21.75
2022-10-13T16:54:43.582Z,22.42
2022-10-13T16:57:09.937Z,23.42
2022-10-13T16:59:36.305Z,23.02
2022-10-13T17:02:03.016Z,23.65
2022-10-13T17:04:31.041Z,28.33
2022-10-13T17:06:57.524Z,27.35
2022-10-13T17:09:23.906Z,29.38
2022-10-13T17:11:50.273Z,27.13
2022-10-13T17:14:16.627Z,30.38
2022-10-13T17:16:44.067Z,28.33
2022-10-13T17:19:10.457Z,27.17
2022-10-13T17:21:36.924Z,27.15
2022-10-13T17:24:05.286Z,27.05
2022-10-13T17:26:32.951Z,23.52
2022-10-13T17:28:59.500Z,21.17
2022-10-13T17:31:25.892Z,23.17
2022-10-13T17:33:53.121Z,29.30
2022-10-13T17:36:25.917Z,22.08
2022-10-13T17:38:55.014Z,24.63
2022-10-13T17:41:22.485Z,25.25
2022-10-13T17:43:50.674Z,32.45
2022-10-13T17:49:07.573Z,29.30
2022-10-13T17:51:34.188Z,29.42
2022-10-13T17:54:01.005Z,27.65
2022-10-13T17:56:27.945Z,37.78
2022-10-13T17:58:54.836Z,36.60
2022-10-13T18:01:30.219Z,32.45
2022-10-13T18:04:02.860Z,28.70
2022-10-13T18:06:36.778Z,29.17
2022-10-13T18:09:09.798Z,26.40
2022-10-13T18:11:36.897Z,31.23
2022-10-13T18:14:03.908Z,25.38
2022-10-13T18:16:30.477Z,31.73
2022-10-13T18:18:56.974Z,24.40
2022-10-13T18:21:26.815Z,28.90
2022-10-13T18:23:55.626Z,29.20
2022-10-13T18:26:22.621Z,30.17
2022-10-13T18:28:50.181Z,30.38
2022-10-13T18:31:20.325Z,28.80
2022-10-13T18:33:50.037Z,34.28
2022-10-13T18:36:16.889Z,30.67
2022-10-13T18:38:43.748Z,33.97
2022-10-13T18:41:10.185Z,27.23
2022-10-13T18:43:36.571Z,28.40
2022-10-13T18:46:04.758Z,30.13
2022-10-13T18:48:32.671Z,22.33
2022-10-13T18:51:10.704Z,25.48
2022-10-13T18:53:39.003Z,29.85
2022-10-13T18:56:08.380Z,25.25
2022-10-13T18:58:35.431Z,35.85
2022-10-13T19:01:03.404Z,40.08
2022-10-13T19:03:32.048Z,31.65
2022-10-13T19:05:59.087Z,33.65
2022-10-13T19:08:26.447Z,31.05
2022-10-13T19:10:52.798Z,29.02
2022-10-13T19:13:19.171Z,34.65
2022-10-13T19:15:46.012Z,32.90
2022-10-13T19:18:12.921Z,27.35
2022-10-13T19:20:40.861Z,28.75
2022-10-13T19:23:07.342Z,28.27
2022-10-13T19:25:33.842Z,25.52
2022-10-13T19:28:00.259Z,27.63
2022-10-13T19:30:26.850Z,28.02
2022-10-13T19:32:53.861Z,27.88
2022-10-13T19:35:20.320Z,27.70
2022-10-13T19:37:46.709Z,26.50
2022-10-13T19:40:13.076Z,23.85
2022-10-13T19:42:39.457Z,30.63
2022-10-13T19:45:06.730Z,38.38
2022-10-13T19:47:33.240Z,33.83
2022-10-13T19:49:59.610Z,31.05
2022-10-13T19:52:26.164Z,37.25
2022-10-13T19:54:52.588Z,29.25
2022-10-13T19:57:19.494Z,32.08
2022-10-13T19:59:47.844Z,32.08
2022-10-13T20:02:14.583Z,31.50
2022-10-13T20:04:41.125Z,37.53
2022-10-13T20:07:07.531Z,31.52
2022-10-13T20:09:34.391Z,29.63
2022-10-13T20:12:00.837Z,28.70
2022-10-13T20:14:27.217Z,26.80
2022-10-13T20:16:56.348Z,29.98
2022-10-13T20:19:22.697Z,28.65
2022-10-13T20:21:51.580Z,30.00
2022-10-13T20:24:19.091Z,28.83
2022-10-13T20:26:45.543Z,37.90
2022-10-13T20:29:12.147Z,24.75
2022-10-13T20:31:38.595Z,23.95
2022-10-13T20:34:05.079Z,30.88
2022-10-13T20:36:37.505Z,29.40
2022-10-13T20:39:05.099Z,22.10
2022-10-13T20:41:33.111Z,28.90
2022-10-13T20:44:00.611Z,28.95
2022-10-13T20:46:29.573Z,25.33
2022-10-13T20:49:12.876Z,24.92
2022-10-13T20:51:40.560Z,24.65
2022-10-13T20:54:07.608Z,22.85
2022-10-13T20:56:34.191Z,28.02
2022-10-13T20:59:10.056Z,24.33
2022-10-13T21:01:37.166Z,26.85
2022-10-13T21:04:04.480Z,24.77
2022-10-13T21:06:31.077Z,29.63
2022-10-13T21:08:59.963Z,29.67
2022-10-13T21:11:26.340Z,25.80
2022-10-13T21:13:53.071Z,31.63
2022-10-13T21:16:22.480Z,28.13
2022-10-13T21:18:51.005Z,27.70
2022-10-13T21:21:22.554Z,26.92
2022-10-13T21:23:58.124Z,23.80
2022-10-13T21:26:26.079Z,32.37
2022-10-13T21:28:52.968Z,27.20
2022-10-13T21:31:21.568Z,27.88
2022-10-13T21:33:48.872Z,28.85
2022-10-13T21:36:18.886Z,25.20
2022-10-13T21:38:46.284Z,28.13
2022-10-13T21:41:14.144Z,22.67
2022-10-13T21:43:40.720Z,26.73
2022-10-13T21:46:20.512Z,30.30
2022-10-13T21:48:54.637Z,24.77
2022-10-13T21:51:31.095Z,24.88
2022-10-13T21:54:09.414Z,23.73
2022-10-13T21:56:36.960Z,26.40
2022-10-13T21:59:03.701Z,25.23
2022-10-13T22:01:30.514Z,26.75
2022-10-13T22:03:59.724Z,23.50
2022-10-13T22:06:26.910Z,27.17
2022-10-13T22:08:55.200Z,23.35
2022-10-13T22:11:24.465Z,26.52
2022-10-13T22:13:51.021Z,23.20
2022-10-13T22:16:26.947Z,27.00
2022-10-13T22:18:55.626Z,20.08
2022-10-13T22:21:29.953Z,21.35
2022-10-13T22:24:02.096Z,21.73
2022-10-13T22:26:30.443Z,18.85
2022-10-13T22:28:57.836Z,19.33
2022-10-13T22:31:24.265Z,18.48
2022-10-13T22:33:53.538Z,17.65
2022-10-13T22:36:22.417Z,16.25
2022-10-13T22:38:50.241Z,20.27
2022-10-13T22:41:18.823Z,18.88
2022-10-13T22:43:49.871Z,22.30
2022-10-13T22:46:18.105Z,15.65
2022-10-13T22:48:44.958Z,17.55
2022-10-13T22:51:15.933Z,16.00
2022-10-13T22:53:42.391Z,17.08
2022-10-13T22:56:11.893Z,14.23
2022-10-13T22:58:38.902Z,18.33
2022-10-13T23:01:12.950Z,13.65
2022-10-13T23:03:39.810Z,18.70
2022-10-13T23:06:08.261Z,18.23
2022-10-13T23:08:35.197Z,15.20
2022-10-13T23:11:01.588Z,17.13
2022-10-13T23:13:28.004Z,13.13
2022-10-13T23:16:08.917Z,13.68
2022-10-13T23:18:37.545Z,18.88
2022-10-13T23:21:08.367Z,14.38
2022-10-13T23:23:35.091Z,15.68
2022-10-13T23:26:10.869Z,15.13
2022-10-13T23:28:37.808Z,14.90
2022-10-13T23:31:08.102Z,14.13
2022-10-13T23:33:34.736Z,15.07
2022-10-13T23:36:02.477Z,15.13
2022-10-13T23:38:30.691Z,15.27
2022-10-13T23:41:08.917Z,17.95
2022-10-13T23:43:36.049Z,12.35
2022-10-13T23:46:03.440Z,14.70
2022-10-13T23:48:29.808Z,15.15
2022-10-13T23:50:56.522Z,15.00
2022-10-13T23:53:23.129Z,13.60
2022-10-13T23:55:49.557Z,14.63
2022-10-13T23:58:15.949Z,17.92
